Time;durP1;ratioP1;P1;durP2;ratioP2;P2;SDS_P1;SDS_P2;PMS_P1;PMS_P2;Temp;Humidity;BMP_temperature;BMP_pressure;BME280_temperature;BME280_humidity;BME280_pressure;Samples;Min_cycle;Max_cycle;Signal;HPM_P1;HPM_P2
2023/10/16 00:01:10;;;;;;;0.10;0.10;;;8.10;99.90;;;;;;5034574;28;20090;-72
2023/10/16 00:03:43;;;;;;;0.10;0.10;;;8.10;99.90;;;;;;5047067;28;20484;-72
2023/10/16 00:06:14;;;;;;;0.10;0.10;;;8.10;99.90;;;;;;5045126;28;21034;-72
2023/10/16 00:08:47;;;;;;;0.15;0.15;;;8.10;99.90;;;;;;5047539;28;20071;-73
2023/10/16 00:11:16;;;;;;;0.10;0.10;;;8.10;99.90;;;;;;5048903;28;20079;-72
2023/10/16 00:13:44;;;;;;;0.20;0.20;;;8.10;99.90;;;;;;5064420;28;20063;-72
2023/10/16 00:16:15;;;;;;;0.13;0.13;;;8.10;99.90;;;;;;5069811;28;20047;-72
2023/10/16 00:18:41;;;;;;;0.10;0.10;;;8.10;99.90;;;;;;5037877;28;20041;-71
2023/10/16 00:21:07;;;;;;;0.20;0.20;;;8.10;99.90;;;;;;5035223;28;20052;-72
2023/10/16 00:23:39;;;;;;;0.20;0.20;;;8.10;99.90;;;;;;5070296;28;20657;-71
2023/10/16 00:26:14;;;;;;;0.10;0.10;;;8.10;99.90;;;;;;5037725;28;20392;-72
2023/10/16 00:29:02;;;;;;;0.10;0.10;;;8.10;99.90;;;;;;5052525;28;20130;-72
2023/10/16 00:31:32;;;;;;;0.15;0.15;;;8.10;99.90;;;;;;5053775;28;20492;-71
2023/10/16 00:33:59;;;;;;;0.20;0.20;;;8.10;99.90;;;;;;5068654;28;20049;-72
2023/10/16 00:36:24;;;;;;;0.10;0.10;;;8.10;99.90;;;;;;5046706;28;20452;-71
2023/10/16 00:38:51;;;;;;;0.20;0.20;;;8.20;99.90;;;;;;5042763;28;20048;-72
2023/10/16 00:41:21;;;;;;;0.20;0.20;;;8.10;99.90;;;;;;5050389;28;20083;-72
2023/10/16 00:43:46;;;;;;;0.10;0.10;;;8.10;99.90;;;;;;5069839;28;20127;-72
2023/10/16 00:46:37;;;;;;;0.10;0.10;;;8.10;99.90;;;;;;5051865;28;20127;-73
2023/10/16 00:49:06;;;;;;;0.10;0.10;;;8.10;99.90;;;;;;5048152;28;20044;-72
2023/10/16 00:51:39;;;;;;;0.15;0.15;;;8.10;99.90;;;;;;5062378;28;20079;-72
2023/10/16 00:54:18;;;;;;;0.10;0.10;;;8.10;99.90;;;;;;5039480;28;20481;-72
2023/10/16 00:56:51;;;;;;;0.10;0.10;;;8.10;99.90;;;;;;5066442;28;20045;-72
2023/10/16 00:59:17;;;;;;;0.20;0.20;;;8.10;99.90;;;;;;5042984;28;20764;-72
2023/10/16 01:01:46;;;;;;;0.10;0.10;;;8.20;99.90;;;;;;5068956;28;20541;-72
2023/10/16 01:04:19;;;;;;;0.20;0.20;;;8.20;99.90;;;;;;5044195;28;20048;-72
2023/10/16 01:06:45;;;;;;;0.20;0.20;;;8.20;99.90;;;;;;5065678;28;20064;-72
2023/10/16 01:09:22;;;;;;;0.10;0.10;;;8.10;99.90;;;;;;5043713;28;20094;-72
2023/10/16 01:26:32;;;;;;;0.10;0.10;;;8.20;99.90;;;;;;5051307;28;20060;-72
2023/10/16 01:28:57;;;;;;;0.10;0.10;;;8.30;99.90;;;;;;5042491;28;20408;-72
2023/10/16 01:31:23;;;;;;;0.10;0.10;;;8.30;99.90;;;;;;5046270;28;20112;-72
2023/10/16 01:33:51;;;;;;;0.10;0.10;;;8.30;99.90;;;;;;5051791;28;20040;-72
2023/10/16 01:36:16;;;;;;;0.20;0.20;;;8.30;99.90;;;;;;5049612;28;20041;-72
2023/10/16 01:38:42;;;;;;;0.10;0.10;;;8.30;99.90;;;;;;5049993;28;20048;-72
2023/10/16 01:41:15;;;;;;;0.20;0.20;;;8.20;99.90;;;;;;5051367;28;20074;-72
2023/10/16 01:43:43;;;;;;;0.20;0.20;;;8.20;99.90;;;;;;5050414;28;20484;-73
2023/10/16 01:46:14;;;;;;;0.10;0.10;;;8.30;99.90;;;;;;5051455;28;20484;-72
2023/10/16 01:48:49;;;;;;;0.25;0.25;;;8.20;99.90;;;;;;5045811;28;20222;-71
2023/10/16 01:51:19;;;;;;;0.20;0.20;;;8.20;99.90;;;;;;5048259;28;20052;-72
2023/10/16 01:53:49;;;;;;;0.10;0.10;;;8.20;99.90;;;;;;5045165;28;20041;-72
2023/10/16 01:56:17;;;;;;;0.10;0.10;;;8.20;99.90;;;;;;5041982;28;20048;-72
2023/10/16 01:58:44;;;;;;;0.20;0.20;;;8.20;99.90;;;;;;5057199;28;20080;-72
2023/10/16 02:01:14;;;;;;;0.20;0.20;;;8.10;99.90;;;;;;5041860;28;20044;-71
2023/10/16 02:03:44;;;;;;;0.20;0.20;;;8.10;99.90;;;;;;5042101;28;20348;-72
2023/10/16 02:06:13;;;;;;;0.10;0.10;;;8.10;99.90;;;;;;5045614;28;20090;-72
2023/10/16 02:08:44;;;;;;;0.10;0.10;;;8.10;99.90;;;;;;5048668;28;20048;-72
2023/10/16 02:11:13;;;;;;;0.20;0.20;;;8.20;99.90;;;;;;5047299;28;20496;-71
2023/10/16 02:13:40;;;;;;;0.20;0.20;;;8.10;99.90;;;;;;5068373;28;20148;-71
2023/10/16 02:16:10;;;;;;;0.10;0.10;;;8.10;99.90;;;;;;5051831;28;20045;-72
2023/10/16 02:18:47;;;;;;;0.10;0.10;;;8.20;99.90;;;;;;5051241;28;20097;-72
2023/10/16 02:21:13;;;;;;;0.20;0.20;;;8.10;99.90;;;;;;5051503;28;20511;-72
2023/10/16 02:23:43;;;;;;;0.20;0.20;;;8.00;99.90;;;;;;5036668;28;20166;-71
2023/10/16 02:26:10;;;;;;;0.20;0.20;;;8.10;99.90;;;;;;5038999;28;20408;-72
2023/10/16 02:28:41;;;;;;;0.20;0.20;;;8.00;99.90;;;;;;5047343;28;20389;-72
2023/10/16 02:31:15;;;;;;;0.20;0.20;;;8.10;99.90;;;;;;5072683;28;20407;-72
2023/10/16 02:33:50;;;;;;;0.20;0.20;;;8.00;99.90;;;;;;5073655;28;20056;-72
2023/10/16 02:36:20;;;;;;;0.20;0.20;;;8.00;99.90;;;;;;5072309;28;20045;-72
2023/10/16 02:38:55;;;;;;;0.20;0.20;;;8.00;99.90;;;;;;5071655;28;20123;-72
2023/10/16 02:41:22;;;;;;;0.10;0.10;;;8.00;99.90;;;;;;5036231;28;20053;-72
2023/10/16 02:43:48;;;;;;;0.15;0.15;;;8.00;99.90;;;;;;5035566;28;20045;-71
2023/10/16 02:46:18;;;;;;;0.10;0.10;;;8.00;99.90;;;;;;5035908;28;20416;-71
2023/10/16 02:48:44;;;;;;;0.10;0.10;;;7.90;99.90;;;;;;5038834;28;20492;-72
2023/10/16 02:51:16;;;;;;;0.17;0.17;;;7.90;99.90;;;;;;5072821;28;20040;-72
2023/10/16 02:53:43;;;;;;;0.10;0.10;;;7.90;99.90;;;;;;5048056;28;20045;-72
2023/10/16 02:56:14;;;;;;;0.20;0.20;;;7.90;99.90;;;;;;5047145;28;20055;-72
2023/10/16 02:58:46;;;;;;;0.20;0.20;;;7.90;99.90;;;;;;5037012;28;20041;-72
2023/10/16 03:01:18;;;;;;;;;;;7.90;99.90;;;;;;5069236;28;20044;-71
2023/10/16 03:03:50;;;;;;;0.10;0.10;;;7.90;99.90;;;;;;5058623;28;20346;-72
2023/10/16 03:06:17;;;;;;;0.20;0.20;;;7.90;99.90;;;;;;5054826;28;20048;-72
2023/10/16 03:08:48;;;;;;;0.20;0.20;;;8.00;99.90;;;;;;5050614;28;20548;-72
2023/10/16 03:11:14;;;;;;;;;;;8.00;99.90;;;;;;5055170;28;20158;-72
2023/10/16 03:13:40;;;;;;;0.10;0.10;;;8.00;99.90;;;;;;5050439;28;19921;-71
2023/10/16 03:16:18;;;;;;;0.20;0.20;;;8.00;99.90;;;;;;5036592;28;20037;-72
2023/10/16 03:18:47;;;;;;;0.20;0.20;;;8.00;99.90;;;;;;5053655;28;20071;-72
2023/10/16 03:23:45;;;;;;;0.10;0.10;;;8.00;99.90;;;;;;5040748;28;20056;-72
2023/10/16 03:26:32;;;;;;;0.20;0.20;;;8.00;99.90;;;;;;5050397;28;20060;-71
2023/10/16 03:29:05;;;;;;;0.10;0.10;;;8.00;99.90;;;;;;5071580;28;20043;-72
2023/10/16 03:31:31;;;;;;;0.10;0.10;;;8.00;99.90;;;;;;5054780;28;20094;-71
2023/10/16 03:33:57;;;;;;;0.20;0.20;;;8.00;99.90;;;;;;5054493;28;20051;-71
2023/10/16 03:36:23;;;;;;;0.10;0.10;;;8.00;99.90;;;;;;5048838;28;20507;-72
2023/10/16 03:38:52;;;;;;;0.15;0.15;;;8.00;99.90;;;;;;5043430;28;20383;-72
2023/10/16 03:43:57;;;;;;;0.20;0.20;;;8.10;99.90;;;;;;5053810;28;20051;-72
2023/10/16 03:46:24;;;;;;;0.10;0.10;;;8.10;99.90;;;;;;5054163;28;20048;-72
2023/10/16 03:48:49;;;;;;;0.10;0.10;;;8.10;99.90;;;;;;5072017;28;20047;-72
2023/10/16 03:51:16;;;;;;;0.10;0.10;;;8.10;99.90;;;;;;5052660;28;20053;-72
2023/10/16 03:53:44;;;;;;;0.15;0.15;;;8.10;99.90;;;;;;5044268;28;20056;-72
2023/10/16 03:56:11;;;;;;;0.10;0.10;;;8.10;99.90;;;;;;5042831;28;20051;-72
2023/10/16 03:58:41;;;;;;;0.20;0.20;;;8.10;99.90;;;;;;5041320;28;20140;-72
2023/10/16 04:01:11;;;;;;;0.10;0.10;;;8.20;99.90;;;;;;5041552;28;20040;-72
2023/10/16 04:03:47;;;;;;;0.20;0.20;;;8.20;99.90;;;;;;5053884;28;20040;-72
2023/10/16 04:06:19;;;;;;;0.15;0.15;;;8.20;99.90;;;;;;5044662;28;20116;-72
2023/10/16 04:08:53;;;;;;;0.10;0.10;;;8.20;99.90;;;;;;5043244;28;20472;-72
2023/10/16 04:11:23;;;;;;;0.10;0.10;;;8.20;99.90;;;;;;5049217;28;20044;-72
2023/10/16 04:13:48;;;;;;;0.10;0.10;;;8.20;99.90;;;;;;5063396;28;20147;-72
2023/10/16 04:21:40;;;;;;;0.10;0.10;;;8.30;99.90;;;;;;5052900;28;20059;-72
2023/10/16 04:24:30;;;;;;;0.20;0.20;;;8.30;99.90;;;;;;5050164;28;20090;-72
2023/10/16 04:37:54;;;;;;;0.10;0.10;;;8.40;99.90;;;;;;5033691;28;20050;-72
2023/10/16 04:43:08;;;;;;;0.10;0.10;;;8.40;99.90;;;;;;5050061;28;20083;-73
2023/10/16 04:45:59;;;;;;;0.10;0.10;;;8.40;99.90;;;;;;5043449;28;20053;-72
2023/10/16 04:48:48;;;;;;;0.10;0.10;;;8.40;99.90;;;;;;5044297;28;20056;-72
2023/10/16 04:51:16;;;;;;;0.13;0.13;;;8.50;99.90;;;;;;5040939;28;20052;-73
2023/10/16 04:53:58;;;;;;;0.10;0.10;;;8.50;99.90;;;;;;5052146;28;20044;-72
2023/10/16 05:02:10;;;;;;;0.10;0.10;;;8.50;99.90;;;;;;5063851;28;20148;-72
2023/10/16 05:07:37;;;;;;;0.20;0.20;;;8.50;99.90;;;;;;5033711;28;20401;-72
2023/10/16 05:16:27;;;;;;;0.10;0.10;;;8.50;99.90;;;;;;5050811;28;20049;-72
2023/10/16 05:18:43;;;;;;;0.10;0.10;;;8.60;99.90;;;;;;5066442;28;20048;-72
2023/10/16 06:16:00;;;;;;;0.10;0.10;;;8.60;99.90;;;;;;5066246;28;20524;-71
2023/10/16 06:18:28;;;;;;;0.20;0.20;;;8.60;99.90;;;;;;5048363;28;20039;-71
2023/10/16 06:20:54;;;;;;;0.10;0.10;;;8.70;99.90;;;;;;5031920;28;20132;-71
2023/10/16 06:23:19;;;;;;;0.10;0.10;;;8.60;99.90;;;;;;5041943;28;20568;-71
2023/10/16 06:25:47;;;;;;;0.10;0.10;;;8.70;99.90;;;;;;5062916;28;20507;-71
2023/10/16 06:28:15;;;;;;;0.10;0.10;;;8.80;99.90;;;;;;5038738;28;20105;-71
2023/10/16 06:30:41;;;;;;;0.10;0.10;;;8.70;99.90;;;;;;5048511;28;20049;-71
2023/10/16 06:33:07;;;;;;;0.10;0.10;;;8.70;99.90;;;;;;5049824;28;20049;-71
2023/10/16 06:35:33;;;;;;;0.10;0.10;;;8.70;99.90;;;;;;5048878;28;20148;-71
2023/10/16 06:38:00;;;;;;;0.20;0.20;;;8.70;99.90;;;;;;5049042;28;20399;-71
2023/10/16 06:40:27;;;;;;;0.10;0.10;;;8.70;99.90;;;;;;5051039;28;20048;-71
2023/10/16 06:43:11;;;;;;;0.20;0.20;;;8.70;99.90;;;;;;5051841;28;20133;-71
2023/10/16 06:45:42;;;;;;;0.20;0.20;;;8.70;99.90;;;;;;5049414;28;20475;-71
2023/10/16 06:48:15;;;;;;;0.10;0.10;;;8.80;99.90;;;;;;5069199;28;20041;-71
2023/10/16 06:50:53;;;;;;;0.10;0.10;;;8.80;99.90;;;;;;5051152;28;20089;-71
2023/10/16 06:53:20;;;;;;;0.10;0.10;;;8.90;99.90;;;;;;5047438;28;20135;-71
2023/10/16 06:55:46;;;;;;;0.20;0.20;;;8.80;99.90;;;;;;5043298;28;20032;-71
2023/10/16 06:58:12;;;;;;;0.20;0.20;;;8.90;99.90;;;;;;5050950;28;20127;-71
2023/10/16 07:00:40;;;;;;;0.10;0.10;;;8.90;99.90;;;;;;5041650;28;20480;-71
2023/10/16 07:03:12;;;;;;;0.10;0.10;;;8.90;99.90;;;;;;5044588;28;20032;-71
2023/10/16 07:05:44;;;;;;;0.10;0.10;;;8.90;99.90;;;;;;5043753;28;20431;-71
2023/10/16 07:08:16;;;;;;;0.10;0.10;;;9.10;99.90;;;;;;5040750;28;20041;-71
2023/10/16 07:10:42;;;;;;;0.15;0.15;;;9.00;99.90;;;;;;5041647;28;20032;-71
2023/10/16 07:13:09;;;;;;;0.20;0.20;;;9.10;99.90;;;;;;5040529;28;20407;-72
2023/10/16 07:15:34;;;;;;;0.17;0.17;;;9.00;99.90;;;;;;5062673;28;20132;-71
2023/10/16 07:18:07;;;;;;;0.20;0.20;;;9.10;99.90;;;;;;5047864;28;20140;-72
2023/10/16 07:20:55;;;;;;;0.10;0.10;;;9.10;99.90;;;;;;5049938;28;20051;-72
2023/10/16 07:23:20;;;;;;;0.15;0.15;;;9.10;99.90;;;;;;5041966;28;20045;-71
2023/10/16 07:25:47;;;;;;;0.10;0.10;;;9.10;99.90;;;;;;5047374;28;20049;-71
2023/10/16 07:28:18;;;;;;;0.20;0.20;;;9.10;99.90;;;;;;5037904;28;20502;-72
2023/10/16 07:30:43;;;;;;;0.10;0.10;;;9.10;99.90;;;;;;5051452;28;20128;-71
2023/10/16 07:33:16;;;;;;;0.20;0.20;;;9.20;99.90;;;;;;5050570;28;20133;-71
2023/10/16 07:35:46;;;;;;;0.20;0.20;;;9.10;99.90;;;;;;5041321;28;20056;-71
2023/10/16 07:38:22;;;;;;;0.15;0.15;;;9.20;99.90;;;;;;5051074;28;20041;-71
2023/10/16 07:40:52;;;;;;;0.10;0.10;;;9.20;99.90;;;;;;5051143;28;20047;-71
2023/10/16 07:43:28;;;;;;;0.10;0.10;;;9.30;99.90;;;;;;5050499;28;20606;-71
2023/10/16 07:48:46;;;;;;;0.10;0.10;;;9.40;99.90;;;;;;5050196;28;20140;-71
2023/10/16 07:51:15;;;;;;;0.20;0.20;;;9.40;99.90;;;;;;5045883;28;20045;-71
2023/10/16 07:53:41;;;;;;;0.10;0.10;;;9.50;99.90;;;;;;5045278;28;20087;-71
2023/10/16 07:56:19;;;;;;;0.20;0.20;;;9.50;99.90;;;;;;5038798;28;20091;-71
2023/10/16 07:58:54;;;;;;;0.10;0.10;;;9.60;99.90;;;;;;5043524;28;20052;-71
2023/10/16 08:01:32;;;;;;;0.10;0.10;;;9.60;99.90;;;;;;5043183;28;20045;-71
2023/10/16 08:03:58;;;;;;;0.20;0.20;;;9.60;99.90;;;;;;5040455;28;20095;-71
2023/10/16 08:06:25;;;;;;;0.10;0.10;;;9.60;99.90;;;;;;5030826;28;20057;-72
2023/10/16 08:09:29;;;;;;;0.20;0.20;;;9.70;99.90;;;;;;5048324;28;20140;-71
2023/10/16 08:11:43;;;;;;;0.13;0.13;;;9.70;99.90;;;;;;5051496;28;20080;-71
2023/10/16 08:14:09;;;;;;;0.20;0.20;;;10.00;99.90;;;;;;5043175;28;20068;-71
2023/10/16 08:16:38;;;;;;;0.13;0.13;;;9.90;99.90;;;;;;5049941;28;20432;-72
2023/10/16 08:19:14;;;;;;;0.10;0.10;;;9.90;99.90;;;;;;5047873;28;20044;-71
2023/10/16 08:21:41;;;;;;;0.10;0.10;;;9.90;99.90;;;;;;5032294;28;20073;-72
2023/10/16 08:24:07;;;;;;;0.20;0.20;;;10.00;99.90;;;;;;5038050;28;20041;-72
2023/10/16 08:26:42;;;;;;;0.20;0.20;;;10.00;99.90;;;;;;5049067;28;20051;-72
2023/10/16 08:29:19;;;;;;;0.10;0.10;;;9.90;99.90;;;;;;5045979;28;20470;-71
2023/10/16 08:34:35;;;;;;;0.20;0.20;;;10.10;99.90;;;;;;5026564;28;20076;-71
2023/10/16 08:37:03;;;;;;;0.10;0.10;;;10.20;99.90;;;;;;5033821;28;20057;-71
2023/10/16 08:39:36;;;;;;;0.20;0.20;;;10.10;99.90;;;;;;5040024;28;20119;-71
2023/10/16 08:42:11;;;;;;;0.17;0.17;;;10.30;99.90;;;;;;5042048;28;20037;-72
2023/10/16 08:44:38;;;;;;;0.10;0.10;;;10.20;99.90;;;;;;5040768;28;20482;-72
2023/10/16 08:49:30;;;;;;;0.20;0.20;;;10.50;99.90;;;;;;5034894;28;20049;-71
2023/10/16 08:52:04;;;;;;;0.20;0.20;;;10.40;99.90;;;;;;5035251;28;20108;-72
2023/10/16 08:54:45;;;;;;;0.20;0.20;;;10.40;99.90;;;;;;5039528;28;20045;-71
2023/10/16 08:57:12;;;;;;;0.20;0.20;;;10.50;99.90;;;;;;5034788;28;20099;-72
2023/10/16 08:59:40;;;;;;;0.20;0.20;;;10.60;99.90;;;;;;5032595;28;20048;-72
2023/10/16 09:02:07;;;;;;;0.20;0.20;;;10.80;99.90;;;;;;5041806;28;20090;-72
2023/10/16 09:04:34;;;;;;;0.20;0.20;;;10.70;99.90;;;;;;5046929;28;20113;-72
2023/10/16 09:07:00;;;;;;;0.20;0.20;;;10.70;99.90;;;;;;5033648;28;20052;-72
2023/10/16 09:09:26;;;;;;;0.10;0.10;;;10.80;99.90;;;;;;5038927;28;20040;-72
2023/10/16 09:12:03;;;;;;;0.13;0.13;;;10.70;99.90;;;;;;5044685;28;20516;-72
2023/10/16 09:14:29;;;;;;;0.20;0.20;;;10.80;99.90;;;;;;5039107;28;20049;-72
2023/10/16 09:16:58;;;;;;;0.10;0.10;;;10.70;99.90;;;;;;5041275;28;20075;-72
2023/10/16 09:19:34;;;;;;;0.10;0.10;;;10.80;99.90;;;;;;5043665;28;20304;-72
2023/10/16 09:22:04;;;;;;;0.10;0.10;;;10.80;99.90;;;;;;5032769;28;20057;-72
2023/10/16 09:24:34;;;;;;;0.13;0.13;;;10.90;99.90;;;;;;5039704;28;20098;-72
2023/10/16 09:27:00;;;;;;;0.20;0.20;;;10.90;99.90;;;;;;5059027;28;20115;-73
2023/10/16 09:29:27;;;;;;;0.10;0.10;;;11.00;99.90;;;;;;5069034;28;20396;-73
2023/10/16 09:31:54;;;;;;;0.10;0.10;;;11.00;99.90;;;;;;5055532;28;20044;-72
2023/10/16 09:34:22;;;;;;;0.10;0.10;;;11.30;99.90;;;;;;5038166;28;20045;-72
2023/10/16 09:36:49;;;;;;;0.10;0.10;;;11.20;99.90;;;;;;5046603;28;20131;-73
2023/10/16 09:39:17;;;;;;;0.20;0.20;;;11.30;99.90;;;;;;5069809;28;20426;-72
2023/10/16 09:41:47;;;;;;;0.10;0.10;;;11.40;99.90;;;;;;5044323;28;20045;-73
2023/10/16 09:44:23;;;;;;;0.10;0.10;;;11.50;99.90;;;;;;5043205;28;20047;-72
2023/10/16 09:46:53;;;;;;;0.10;0.10;;;11.60;99.90;;;;;;5032667;28;20048;-72
2023/10/16 09:49:24;;;;;;;0.10;0.10;;;11.60;99.90;;;;;;5031949;28;20048;-73
2023/10/16 09:51:59;;;;;;;0.20;0.20;;;11.80;99.90;;;;;;5034127;28;20511;-73
2023/10/16 09:54:27;;;;;;;0.20;0.20;;;11.70;99.90;;;;;;5062367;28;20047;-72
2023/10/16 09:56:59;;;;;;;0.10;0.10;;;11.80;99.90;;;;;;5034597;28;20407;-72
2023/10/16 09:59:32;;;;;;;0.10;0.10;;;11.90;99.90;;;;;;5051759;28;20074;-73
2023/10/16 10:02:05;;;;;;;0.10;0.10;;;11.90;99.90;;;;;;5068515;28;20044;-72
2023/10/16 10:04:35;;;;;;;0.20;0.20;;;12.00;99.90;;;;;;5051888;28;20503;-71
2023/10/16 10:07:11;;;;;;;0.10;0.10;;;11.80;99.90;;;;;;5043533;28;20127;-71
2023/10/16 10:09:44;;;;;;;0.10;0.10;;;12.00;99.90;;;;;;5035967;28;20041;-72
2023/10/16 10:12:47;;;;;;;0.20;0.20;;;12.00;99.90;;;;;;5068621;28;20045;-72
2023/10/16 10:15:26;;;;;;;0.10;0.10;;;12.00;99.90;;;;;;5051634;28;20545;-71
2023/10/16 10:17:55;;;;;;;0.10;0.10;;;12.00;99.90;;;;;;5039207;28;20491;-71
2023/10/16 10:20:39;;;;;;;0.10;0.10;;;12.10;99.90;;;;;;5040045;28;20404;-71
2023/10/16 10:23:06;;;;;;;0.20;0.20;;;12.10;99.90;;;;;;5051212;28;20568;-72
2023/10/16 10:25:40;;;;;;;0.10;0.10;;;12.10;99.90;;;;;;5035171;28;20060;-71
2023/10/16 10:28:22;;;;;;;0.10;0.10;;;12.20;99.90;;;;;;5043837;28;20098;-71
2023/10/16 10:30:50;;;;;;;0.10;0.10;;;12.20;99.90;;;;;;5048100;28;20044;-71
2023/10/16 10:33:37;;;;;;;0.20;0.20;;;12.30;99.90;;;;;;5051288;28;20109;-71
2023/10/16 10:36:28;;;;;;;0.20;0.20;;;12.40;99.90;;;;;;5045415;28;20072;-71
2023/10/16 10:39:23;;;;;;;0.20;0.20;;;12.40;99.90;;;;;;5047204;28;20496;-71
2023/10/16 10:41:51;;;;;;;0.20;0.20;;;12.40;99.90;;;;;;5039262;28;20052;-71
2023/10/16 10:44:19;;;;;;;0.15;0.15;;;12.40;99.90;;;;;;5035563;28;20044;-71
2023/10/16 10:46:53;;;;;;;0.10;0.10;;;12.50;99.90;;;;;;5039851;28;20374;-71
2023/10/16 10:49:34;;;;;;;0.20;0.20;;;12.40;99.90;;;;;;5046800;28;20174;-71
2023/10/16 10:52:01;;;;;;;0.20;0.20;;;12.50;99.90;;;;;;5042298;28;20528;-72
2023/10/16 10:54:27;;;;;;;0.20;0.20;;;12.60;99.90;;;;;;5043482;28;20479;-71
2023/10/16 10:56:59;;;;;;;0.10;0.10;;;12.70;99.90;;;;;;5050910;28;20045;-71
2023/10/16 10:59:41;;;;;;;0.20;0.20;;;12.60;99.90;;;;;;5042515;28;20109;-72
2023/10/16 11:04:53;;;;;;;0.10;0.10;;;12.60;99.90;;;;;;5035558;28;20049;-71
2023/10/16 11:07:26;;;;;;;0.10;0.10;;;12.70;99.90;;;;;;5068287;28;20044;-71
2023/10/16 11:09:53;;;;;;;0.20;0.20;;;12.70;99.90;;;;;;5036943;28;20041;-71
2023/10/16 11:12:24;;;;;;;0.10;0.10;;;12.70;99.90;;;;;;5035017;28;20045;-71
2023/10/16 11:14:51;;;;;;;0.20;0.20;;;12.70;99.90;;;;;;5060316;28;20048;-72
2023/10/16 11:17:52;;;;;;;0.20;0.20;;;12.80;99.90;;;;;;5071678;28;20036;-71
2023/10/16 11:20:29;;;;;;;0.10;0.10;;;12.80;99.90;;;;;;5012722;28;20056;-72
2023/10/16 11:22:58;;;;;;;0.10;0.10;;;12.90;99.90;;;;;;5069987;28;20295;-73
2023/10/16 11:25:34;;;;;;;0.10;0.10;;;13.00;99.90;;;;;;5046789;28;20063;-72
2023/10/16 11:28:07;;;;;;;0.15;0.15;;;12.90;99.90;;;;;;5072213;28;20043;-72
2023/10/16 11:30:38;;;;;;;0.10;0.10;;;13.10;99.90;;;;;;5053183;28;20127;-72
2023/10/16 11:33:04;;;;;;;;;;;13.10;99.90;;;;;;5046419;28;20037;-72
2023/10/16 11:35:34;;;;;;;0.10;0.10;;;13.10;99.90;;;;;;5042715;28;20054;-72
2023/10/16 11:38:04;;;;;;;0.20;0.20;;;13.20;99.90;;;;;;5051960;28;20400;-72
2023/10/16 11:40:39;;;;;;;0.20;0.20;;;13.30;99.90;;;;;;5044233;28;20585;-72
2023/10/16 11:43:08;;;;;;;0.20;0.20;;;13.40;99.90;;;;;;5038602;28;20068;-72
2023/10/16 11:45:34;;;;;;;0.20;0.20;;;13.40;99.90;;;;;;5050119;28;20570;-72
2023/10/16 11:50:51;;;;;;;0.10;0.10;;;13.50;99.90;;;;;;5052978;28;20075;-72
2023/10/16 11:53:29;;;;;;;0.10;0.10;;;13.50;99.90;;;;;;5069799;28;20463;-71
2023/10/16 11:55:56;;;;;;;0.20;0.20;;;13.40;99.90;;;;;;5046049;28;20075;-72
2023/10/16 11:58:22;;;;;;;0.20;0.20;;;13.40;99.90;;;;;;5034758;28;20033;-72
2023/10/16 12:00:57;;;;;;;0.10;0.10;;;13.30;99.90;;;;;;5044746;28;20044;-72
2023/10/16 12:03:26;;;;;;;0.15;0.15;;;13.40;99.90;;;;;;5050940;28;20118;-72
2023/10/16 12:05:52;;;;;;;0.10;0.10;;;13.40;99.90;;;;;;5045451;28;20436;-72
2023/10/16 12:08:21;;;;;;;0.20;0.20;;;13.40;99.90;;;;;;5052529;28;20041;-72
2023/10/16 12:10:50;;;;;;;0.20;0.20;;;13.50;99.90;;;;;;5070935;28;20045;-71
2023/10/16 12:13:16;;;;;;;0.10;0.10;;;13.40;99.90;;;;;;5054200;28;20045;-71
2023/10/16 12:15:43;;;;;;;0.20;0.20;;;13.40;99.90;;;;;;5041842;28;20032;-71
2023/10/16 12:18:12;;;;;;;0.20;0.20;;;13.30;99.90;;;;;;5050791;28;20124;-71
2023/10/16 12:20:41;;;;;;;0.20;0.20;;;13.20;99.90;;;;;;5051612;28;20040;-71
2023/10/16 12:23:07;;;;;;;0.20;0.20;;;13.10;99.90;;;;;;5067699;28;20048;-72
2023/10/16 12:25:34;;;;;;;0.20;0.20;;;13.10;99.90;;;;;;5050564;28;20553;-72
2023/10/16 12:28:01;;;;;;;0.20;0.20;;;13.10;99.90;;;;;;5053653;28;20143;-71
2023/10/16 12:30:28;;;;;;;0.20;0.20;;;13.30;99.90;;;;;;5053105;28;20431;-71
2023/10/16 12:32:55;;;;;;;0.17;0.17;;;13.40;99.90;;;;;;5046678;28;20069;-72
2023/10/16 12:35:22;;;;;;;0.20;0.20;;;13.60;99.90;;;;;;5034072;28;20049;-71
2023/10/16 12:37:49;;;;;;;0.20;0.20;;;14.00;99.90;;;;;;5052267;28;20048;-72
2023/10/16 12:40:27;;;;;;;0.17;0.17;;;14.10;99.90;;;;;;5052959;28;20056;-72
2023/10/16 12:42:58;;;;;;;0.10;0.10;;;14.30;99.90;;;;;;5053573;28;20053;-72
2023/10/16 12:45:24;;;;;;;0.20;0.20;;;14.50;99.90;;;;;;5052351;28;20064;-71
2023/10/16 12:47:54;;;;;;;0.10;0.10;;;14.80;99.90;;;;;;5053082;28;20503;-71
2023/10/16 12:50:23;;;;;;;0.17;0.17;;;15.00;99.90;;;;;;5050619;28;20060;-71
2023/10/16 12:52:56;;;;;;;0.10;0.10;;;15.00;99.90;;;;;;5046686;28;20502;-72
2023/10/16 12:55:26;;;;;;;0.10;0.10;;;15.20;99.90;;;;;;5035147;28;20581;-72
2023/10/16 12:57:52;;;;;;;0.20;0.20;;;15.40;99.90;;;;;;5051065;28;20120;-72
2023/10/16 13:00:23;;;;;;;0.10;0.10;;;15.60;99.90;;;;;;5031949;28;20080;-71
2023/10/16 13:02:51;;;;;;;0.20;0.20;;;15.80;99.90;;;;;;5032998;28;20045;-71
2023/10/16 13:05:18;;;;;;;0.10;0.10;;;16.10;99.90;;;;;;5036212;28;20044;-71
2023/10/16 13:07:45;;;;;;;0.13;0.13;;;16.30;99.90;;;;;;5069879;28;20052;-72
2023/10/16 13:10:19;;;;;;;0.20;0.20;;;16.60;99.90;;;;;;5052114;28;20090;-71
2023/10/16 13:12:46;;;;;;;0.20;0.20;;;16.90;99.90;;;;;;5052429;28;20405;-71
2023/10/16 13:15:24;;;;;;;0.20;0.20;;;16.90;99.90;;;;;;5052181;28;20540;-71
2023/10/16 13:17:53;;;;;;;0.20;0.20;;;16.90;99.90;;;;;;5052804;28;20055;-71
2023/10/16 13:20:19;;;;;;;0.20;0.20;;;16.90;99.90;;;;;;5049235;28;20048;-72
2023/10/16 13:22:49;;;;;;;0.10;0.10;;;17.00;99.90;;;;;;5050588;28;20593;-72
2023/10/16 13:25:16;;;;;;;0.10;0.10;;;17.00;99.90;;;;;;5038670;28;20049;-72
2023/10/16 13:27:44;;;;;;;0.10;0.10;;;17.10;99.90;;;;;;5041358;28;20062;-73
2023/10/16 13:30:11;;;;;;;0.20;0.20;;;17.10;99.90;;;;;;5041059;28;20480;-71
2023/10/16 13:32:41;;;;;;;0.15;0.15;;;17.00;99.90;;;;;;5033354;28;20512;-72
2023/10/16 13:35:12;;;;;;;0.15;0.15;;;16.80;99.90;;;;;;5038361;28;20484;-72
2023/10/16 13:37:42;;;;;;;0.20;0.20;;;16.70;99.90;;;;;;5051553;28;20060;-71
2023/10/16 13:40:24;;;;;;;0.20;0.20;;;16.40;99.90;;;;;;5049870;28;20044;-72
2023/10/16 13:42:55;;;;;;;0.20;0.20;;;16.20;99.90;;;;;;5064810;28;20065;-72
2023/10/16 13:45:21;;;;;;;0.10;0.10;;;16.00;99.90;;;;;;5038178;28;20074;-73
2023/10/16 13:47:49;;;;;;;0.20;0.20;;;15.80;99.90;;;;;;5064946;28;20047;-72
2023/10/16 13:50:24;;;;;;;0.20;0.20;;;15.70;99.90;;;;;;5068454;28;20090;-72
2023/10/16 13:52:53;;;;;;;0.10;0.10;;;15.50;99.90;;;;;;5042672;28;21281;-72
2023/10/16 13:55:22;;;;;;;0.20;0.20;;;15.30;99.90;;;;;;5035592;28;20036;-72
2023/10/16 13:57:49;;;;;;;0.20;0.20;;;15.20;99.90;;;;;;5045664;28;20048;-72
2023/10/16 14:00:29;;;;;;;0.10;0.10;;;15.10;99.90;;;;;;5039984;28;20507;-72
2023/10/16 14:03:10;;;;;;;0.20;0.20;;;15.00;99.90;;;;;;5049132;28;20049;-72
2023/10/16 14:05:50;;;;;;;0.20;0.20;;;14.80;99.90;;;;;;5031836;28;20076;-71
2023/10/16 14:08:17;;;;;;;0.17;0.17;;;14.70;99.90;;;;;;5034363;28;20066;-71
2023/10/16 14:10:49;;;;;;;0.10;0.10;;;14.50;99.90;;;;;;5041938;28;20127;-71
2023/10/16 14:13:19;;;;;;;0.20;0.20;;;14.40;99.90;;;;;;5063148;28;20106;-71
2023/10/16 14:18:34;;;;;;;0.17;0.17;;;14.10;99.90;;;;;;5055947;28;20088;-70
2023/10/16 14:20:59;;;;;;;0.10;0.10;;;14.00;99.90;;;;;;5070172;28;20083;-71
2023/10/16 14:23:30;;;;;;;0.20;0.20;;;13.90;99.90;;;;;;5060201;28;21237;-71
2023/10/16 14:25:59;;;;;;;;;;;13.80;99.90;;;;;;5069040;28;20094;-72
2023/10/16 14:28:27;;;;;;;0.20;0.20;;;13.90;99.90;;;;;;5058375;28;19928;-72
2023/10/16 14:30:54;;;;;;;0.10;0.10;;;13.70;99.90;;;;;;5056192;28;20080;-72
2023/10/16 14:33:23;;;;;;;0.20;0.20;;;13.50;99.90;;;;;;5070170;28;20084;-71
2023/10/16 14:35:49;;;;;;;0.20;0.20;;;13.60;99.90;;;;;;5043429;28;20052;-71
2023/10/16 14:38:19;;;;;;;0.10;0.10;;;13.50;99.90;;;;;;5062038;28;20423;-71
2023/10/16 14:40:45;;;;;;;0.10;0.10;;;13.50;99.90;;;;;;5053729;28;20044;-71
2023/10/16 14:43:11;;;;;;;0.10;0.10;;;13.40;99.90;;;;;;5051964;28;20041;-71
2023/10/16 14:45:38;;;;;;;0.20;0.20;;;13.30;99.90;;;;;;5036918;28;20055;-71
2023/10/16 14:48:04;;;;;;;0.10;0.10;;;13.30;99.90;;;;;;5052983;28;20653;-72
2023/10/16 14:50:32;;;;;;;0.10;0.10;;;13.20;99.90;;;;;;5047876;28;20052;-71
2023/10/16 14:53:00;;;;;;;0.20;0.20;;;13.20;99.90;;;;;;5054399;28;20048;-71
2023/10/16 14:55:27;;;;;;;0.20;0.20;;;13.20;99.90;;;;;;5041560;28;20140;-71
2023/10/16 14:57:55;;;;;;;0.13;0.13;;;13.10;99.90;;;;;;5070634;28;20151;-71
2023/10/16 15:00:27;;;;;;;0.10;0.10;;;13.00;99.90;;;;;;5053102;28;20067;-72
2023/10/16 15:02:55;;;;;;;0.10;0.10;;;13.00;99.90;;;;;;5053579;28;20048;-71
2023/10/16 15:05:21;;;;;;;0.20;0.20;;;12.90;99.90;;;;;;5049122;28;20086;-71
2023/10/16 15:07:47;;;;;;;0.10;0.10;;;12.90;99.90;;;;;;5054979;28;20295;-72
2023/10/16 15:10:13;;;;;;;0.10;0.10;;;12.80;99.90;;;;;;5074550;28;20036;-72
2023/10/16 15:12:39;;;;;;;0.15;0.15;;;12.80;99.90;;;;;;5055788;28;20488;-71
2023/10/16 15:15:08;;;;;;;0.10;0.10;;;12.70;99.90;;;;;;5055556;28;20078;-71